sensor_id;sensor_type;location;lat;lon;timestamp;temperature;humidity
12421;DHT22;6275;43.688;1.408;2023-05-10T01:39:38;11.70;99.90
12421;DHT22;6275;43.688;1.408;2023-05-10T01:42:17;11.60;99.90
12421;DHT22;6275;43.688;1.408;2023-05-10T01:44:56;11.60;99.90
12421;DHT22;6275;43.688;1.408;2023-05-10T01:47:32;11.60;99.90
12421;DHT22;6275;43.688;1.408;2023-05-10T01:50:04;11.60;99.90
12421;DHT22;6275;43.688;1.408;2023-05-10T01:52:37;11.60;99.90
12421;DHT22;6275;43.688;1.408;2023-05-10T01:55:07;11.50;99.90
12421;DHT22;6275;43.688;1.408;2023-05-10T01:57:37;11.50;99.90
12421;DHT22;6275;43.688;1.408;2023-05-10T02:00:07;11.40;99.90
12421;DHT22;6275;43.688;1.408;2023-05-10T02:02:40;11.40;99.90
12421;DHT22;6275;43.688;1.408;2023-05-10T02:05:09;11.30;99.90
12421;DHT22;6275;43.688;1.408;2023-05-10T02:07:39;11.30;99.90
12421;DHT22;6275;43.688;1.408;2023-05-10T02:10:09;11.20;99.90
12421;DHT22;6275;43.688;1.408;2023-05-10T02:12:41;11.20;99.90
12421;DHT22;6275;43.688;1.408;2023-05-10T02:15:11;11.10;99.90
12421;DHT22;6275;43.688;1.408;2023-05-10T02:17:39;11.10;99.90
12421;DHT22;6275;43.688;1.408;2023-05-10T02:20:07;11.10;99.90
12421;DHT22;6275;43.688;1.408;2023-05-10T02:22:35;11.00;99.90
12421;DHT22;6275;43.688;1.408;2023-05-10T02:25:03;11.00;99.90
12421;DHT22;6275;43.688;1.408;2023-05-10T02:27:30;10.90;99.90
12421;DHT22;6275;43.688;1.408;2023-05-10T02:29:58;10.90;99.90
12421;DHT22;6275;43.688;1.408;2023-05-10T02:32:26;10.90;99.90
12421;DHT22;6275;43.688;1.408;2023-05-10T02:34:54;10.90;99.90
12421;DHT22;6275;43.688;1.408;2023-05-10T02:37:23;10.90;99.90
12421;DHT22;6275;43.688;1.408;2023-05-10T02:39:53;10.90;99.90
12421;DHT22;6275;43.688;1.408;2023-05-10T02:42:27;10.90;99.90
12421;DHT22;6275;43.688;1.408;2023-05-10T02:45:00;10.80;99.90
12421;DHT22;6275;43.688;1.408;2023-05-10T02:47:28;10.80;99.90
12421;DHT22;6275;43.688;1.408;2023-05-10T02:49:55;10.80;99.90
12421;DHT22;6275;43.688;1.408;2023-05-10T02:55:14;10.80;99.90
12421;DHT22;6275;43.688;1.408;2023-05-10T02:57:52;10.80;99.90
12421;DHT22;6275;43.688;1.408;2023-05-10T03:00:21;10.80;99.90
12421;DHT22;6275;43.688;1.408;2023-05-10T03:02:48;10.70;99.90
12421;DHT22;6275;43.688;1.408;2023-05-10T03:05:15;10.70;99.90
12421;DHT22;6275;43.688;1.408;2023-05-10T03:07:42;10.70;99.90
12421;DHT22;6275;43.688;1.408;2023-05-10T03:10:09;10.70;99.90
12421;DHT22;6275;43.688;1.408;2023-05-10T03:15:45;10.80;99.90
12421;DHT22;6275;43.688;1.408;2023-05-10T03:18:22;10.80;99.90
12421;DHT22;6275;43.688;1.408;2023-05-10T03:20:51;10.80;99.90
12421;DHT22;6275;43.688;1.408;2023-05-10T03:23:30;10.90;99.90
12421;DHT22;6275;43.688;1.408;2023-05-10T03:26:01;10.90;99.90
12421;DHT22;6275;43.688;1.408;2023-05-10T03:28:28;10.90;99.90
12421;DHT22;6275;43.688;1.408;2023-05-10T03:30:56;10.90;99.90
12421;DHT22;6275;43.688;1.408;2023-05-10T03:33:24;11.00;99.90
12421;DHT22;6275;43.688;1.408;2023-05-10T03:35:51;11.00;99.90
12421;DHT22;6275;43.688;1.408;2023-05-10T03:38:18;11.00;99.90
12421;DHT22;6275;43.688;1.408;2023-05-10T03:40:45;11.00;99.90
12421;DHT22;6275;43.688;1.408;2023-05-10T03:43:12;11.00;99.90
12421;DHT22;6275;43.688;1.408;2023-05-10T03:45:39;11.00;99.90
12421;DHT22;6275;43.688;1.408;2023-05-10T03:48:06;11.00;99.90
12421;DHT22;6275;43.688;1.408;2023-05-10T03:50:33;11.00;99.90
12421;DHT22;6275;43.688;1.408;2023-05-10T03:53:00;11.10;99.90
12421;DHT22;6275;43.688;1.408;2023-05-10T03:55:27;11.20;99.90
12421;DHT22;6275;43.688;1.408;2023-05-10T03:57:54;11.20;99.90
12421;DHT22;6275;43.688;1.408;2023-05-10T04:00:21;11.20;99.90
12421;DHT22;6275;43.688;1.408;2023-05-10T04:02:48;11.30;99.90
12421;DHT22;6275;43.688;1.408;2023-05-10T04:05:15;11.30;99.90
12421;DHT22;6275;43.688;1.408;2023-05-10T04:07:42;11.30;99.90
12421;DHT22;6275;43.688;1.408;2023-05-10T04:10:11;11.40;99.90
12421;DHT22;6275;43.688;1.408;2023-05-10T04:12:38;11.40;99.90
12421;DHT22;6275;43.688;1.408;2023-05-10T04:15:05;11.50;99.90
12421;DHT22;6275;43.688;1.408;2023-05-10T04:17:33;11.50;99.90
12421;DHT22;6275;43.688;1.408;2023-05-10T04:20:00;11.50;99.90
12421;DHT22;6275;43.688;1.408;2023-05-10T04:22:27;11.50;99.90
12421;DHT22;6275;43.688;1.408;2023-05-10T04:24:55;11.50;99.90
12421;DHT22;6275;43.688;1.408;2023-05-10T04:27:22;11.60;99.90
12421;DHT22;6275;43.688;1.408;2023-05-10T04:29:49;11.60;99.90
12421;DHT22;6275;43.688;1.408;2023-05-10T04:32:16;11.60;99.90
12421;DHT22;6275;43.688;1.408;2023-05-10T04:34:44;11.60;99.90
12421;DHT22;6275;43.688;1.408;2023-05-10T04:37:11;11.60;99.90
12421;DHT22;6275;43.688;1.408;2023-05-10T04:39:38;11.60;99.90
12421;DHT22;6275;43.688;1.408;2023-05-10T04:42:07;11.60;99.90
12421;DHT22;6275;43.688;1.408;2023-05-10T04:44:35;11.60;99.90
12421;DHT22;6275;43.688;1.408;2023-05-10T04:47:02;11.60;99.90
12421;DHT22;6275;43.688;1.408;2023-05-10T04:49:29;11.60;99.90
12421;DHT22;6275;43.688;1.408;2023-05-10T04:51:56;11.60;99.90
12421;DHT22;6275;43.688;1.408;2023-05-10T04:54:23;11.60;99.90
12421;DHT22;6275;43.688;1.408;2023-05-10T04:56:51;11.60;99.90
12421;DHT22;6275;43.688;1.408;2023-05-10T04:59:18;11.60;99.90
12421;DHT22;6275;43.688;1.408;2023-05-10T05:01:44;11.60;99.90
12421;DHT22;6275;43.688;1.408;2023-05-10T05:04:12;11.60;99.90
12421;DHT22;6275;43.688;1.408;2023-05-10T05:06:38;11.60;99.90
12421;DHT22;6275;43.688;1.408;2023-05-10T05:09:05;11.50;99.90
12421;DHT22;6275;43.688;1.408;2023-05-10T05:11:32;11.50;99.90
12421;DHT22;6275;43.688;1.408;2023-05-10T05:13:59;11.60;99.90
12421;DHT22;6275;43.688;1.408;2023-05-10T05:16:26;11.60;99.90
12421;DHT22;6275;43.688;1.408;2023-05-10T05:18:53;11.70;99.90
12421;DHT22;6275;43.688;1.408;2023-05-10T05:21:20;11.80;99.90
12421;DHT22;6275;43.688;1.408;2023-05-10T05:23:48;11.90;99.90
12421;DHT22;6275;43.688;1.408;2023-05-10T05:26:15;11.90;99.90
12421;DHT22;6275;43.688;1.408;2023-05-10T05:28:42;11.90;99.90
12421;DHT22;6275;43.688;1.408;2023-05-10T05:31:09;12.00;99.90
12421;DHT22;6275;43.688;1.408;2023-05-10T05:33:36;12.00;99.90
12421;DHT22;6275;43.688;1.408;2023-05-10T05:36:04;12.00;99.90
12421;DHT22;6275;43.688;1.408;2023-05-10T05:38:32;12.20;99.90
12421;DHT22;6275;43.688;1.408;2023-05-10T05:40:59;12.10;99.90
12421;DHT22;6275;43.688;1.408;2023-05-10T05:43:26;12.20;99.90
12421;DHT22;6275;43.688;1.408;2023-05-10T05:45:53;12.20;99.90
12421;DHT22;6275;43.688;1.408;2023-05-10T05:48:20;12.30;99.90
12421;DHT22;6275;43.688;1.408;2023-05-10T05:50:47;12.20;99.90
12421;DHT22;6275;43.688;1.408;2023-05-10T05:53:14;12.30;99.90
12421;DHT22;6275;43.688;1.408;2023-05-10T05:55:56;12.30;99.90
12421;DHT22;6275;43.688;1.408;2023-05-10T05:58:25;12.50;99.90
12421;DHT22;6275;43.688;1.408;2023-05-10T06:00:52;12.60;99.90
12421;DHT22;6275;43.688;1.408;2023-05-10T06:03:19;12.70;99.90
12421;DHT22;6275;43.688;1.408;2023-05-10T06:05:47;12.60;99.90
12421;DHT22;6275;43.688;1.408;2023-05-10T06:08:15;12.70;99.90
12421;DHT22;6275;43.688;1.408;2023-05-10T06:10:42;12.80;99.90
12421;DHT22;6275;43.688;1.408;2023-05-10T06:13:09;12.90;99.90
12421;DHT22;6275;43.688;1.408;2023-05-10T06:15:36;12.80;99.90
12421;DHT22;6275;43.688;1.408;2023-05-10T06:18:03;12.60;99.90
12421;DHT22;6275;43.688;1.408;2023-05-10T06:20:30;12.50;99.90
12421;DHT22;6275;43.688;1.408;2023-05-10T06:22:58;12.30;99.90
12421;DHT22;6275;43.688;1.408;2023-05-10T06:25:25;12.30;99.90
12421;DHT22;6275;43.688;1.408;2023-05-10T06:27:52;12.40;99.90
12421;DHT22;6275;43.688;1.408;2023-05-10T06:30:25;12.60;99.90
12421;DHT22;6275;43.688;1.408;2023-05-10T06:32:55;12.70;99.90
12421;DHT22;6275;43.688;1.408;2023-05-10T06:35:22;13.00;99.90
12421;DHT22;6275;43.688;1.408;2023-05-10T06:37:50;13.00;99.90
12421;DHT22;6275;43.688;1.408;2023-05-10T06:40:17;13.00;99.90
12421;DHT22;6275;43.688;1.408;2023-05-10T06:42:45;13.10;99.90
12421;DHT22;6275;43.688;1.408;2023-05-10T06:45:13;13.30;99.90
12421;DHT22;6275;43.688;1.408;2023-05-10T06:47:41;13.40;99.90
12421;DHT22;6275;43.688;1.408;2023-05-10T06:50:09;13.60;99.90
12421;DHT22;6275;43.688;1.408;2023-05-10T06:52:36;13.60;99.90
12421;DHT22;6275;43.688;1.408;2023-05-10T06:55:04;13.80;99.90
12421;DHT22;6275;43.688;1.408;2023-05-10T06:57:31;13.70;99.90
12421;DHT22;6275;43.688;1.408;2023-05-10T07:02:26;13.70;99.90
12421;DHT22;6275;43.688;1.408;2023-05-10T07:04:53;14.00;99.90
12421;DHT22;6275;43.688;1.408;2023-05-10T07:07:21;14.10;99.90
12421;DHT22;6275;43.688;1.408;2023-05-10T07:09:48;14.10;99.90
12421;DHT22;6275;43.688;1.408;2023-05-10T07:14:44;14.50;99.90
12421;DHT22;6275;43.688;1.408;2023-05-10T07:17:11;14.80;99.90
12421;DHT22;6275;43.688;1.408;2023-05-10T07:19:38;15.00;99.90
12421;DHT22;6275;43.688;1.408;2023-05-10T07:22:05;14.70;99.90
12421;DHT22;6275;43.688;1.408;2023-05-10T07:24:32;14.60;99.90
12421;DHT22;6275;43.688;1.408;2023-05-10T07:26:59;14.80;99.90
12421;DHT22;6275;43.688;1.408;2023-05-10T07:29:26;14.80;99.90
12421;DHT22;6275;43.688;1.408;2023-05-10T07:31:53;14.80;99.90
12421;DHT22;6275;43.688;1.408;2023-05-10T07:34:24;14.70;99.90
12421;DHT22;6275;43.688;1.408;2023-05-10T07:36:52;14.50;99.90
12421;DHT22;6275;43.688;1.408;2023-05-10T07:39:19;14.40;99.90
12421;DHT22;6275;43.688;1.408;2023-05-10T07:41:56;14.50;99.90
12421;DHT22;6275;43.688;1.408;2023-05-10T07:44:23;14.20;99.90
12421;DHT22;6275;43.688;1.408;2023-05-10T07:46:50;14.00;99.90
12421;DHT22;6275;43.688;1.408;2023-05-10T07:49:17;13.80;99.90
12421;DHT22;6275;43.688;1.408;2023-05-10T07:51:46;13.50;99.90
12421;DHT22;6275;43.688;1.408;2023-05-10T07:54:13;13.40;99.90
12421;DHT22;6275;43.688;1.408;2023-05-10T07:56:40;13.40;99.90
12421;DHT22;6275;43.688;1.408;2023-05-10T07:59:15;13.90;99.90
12421;DHT22;6275;43.688;1.408;2023-05-10T08:01:43;14.30;99.90
12421;DHT22;6275;43.688;1.408;2023-05-10T08:04:10;14.50;99.90
12421;DHT22;6275;43.688;1.408;2023-05-10T08:06:38;14.40;99.90
12421;DHT22;6275;43.688;1.408;2023-05-10T08:09:05;14.40;99.90
12421;DHT22;6275;43.688;1.408;2023-05-10T08:11:32;14.70;99.90
12421;DHT22;6275;43.688;1.408;2023-05-10T08:14:01;14.70;99.90
12421;DHT22;6275;43.688;1.408;2023-05-10T08:16:27;14.80;99.90
12421;DHT22;6275;43.688;1.408;2023-05-10T08:23:52;14.70;99.90
12421;DHT22;6275;43.688;1.408;2023-05-10T08:26:19;14.50;99.90
12421;DHT22;6275;43.688;1.408;2023-05-10T08:28:47;14.40;99.90
12421;DHT22;6275;43.688;1.408;2023-05-10T08:31:15;14.50;99.90
12421;DHT22;6275;43.688;1.408;2023-05-10T08:33:42;14.50;99.90
12421;DHT22;6275;43.688;1.408;2023-05-10T08:36:29;14.40;99.90
12421;DHT22;6275;43.688;1.408;2023-05-10T08:38:56;14.80;99.90
